createdAt,value
2022-12-18T00:01:27.537Z,65.30
2022-12-18T00:03:56.744Z,65.40
2022-12-18T00:06:24.976Z,65.30
2022-12-18T00:08:52.043Z,65.40
2022-12-18T00:11:21.512Z,65.00
2022-12-18T00:13:50.307Z,65.30
2022-12-18T00:16:22.399Z,65.20
2022-12-18T00:18:50.717Z,65.10
2022-12-18T00:21:17.797Z,65.00
2022-12-18T00:23:45.974Z,64.70
2022-12-18T00:26:19.268Z,65.20
2022-12-18T00:28:46.851Z,65.40
2022-12-18T00:31:16.256Z,65.20
2022-12-18T00:33:44.057Z,65.20
2022-12-18T00:36:19.712Z,65.40
2022-12-18T00:38:47.540Z,65.00
2022-12-18T00:41:36.651Z,64.80
2022-12-18T00:44:04.756Z,64.50
2022-12-18T00:46:31.817Z,64.30
2022-12-18T00:48:58.816Z,63.80
2022-12-18T00:51:26.307Z,63.80
2022-12-18T00:53:53.376Z,63.10
2022-12-18T00:56:24.078Z,63.30
2022-12-18T00:58:50.983Z,63.30
2022-12-18T01:01:18.474Z,63.70
2022-12-18T01:03:47.649Z,63.70
2022-12-18T01:06:17.262Z,63.80
2022-12-18T01:08:45.022Z,64.10
2022-12-18T01:11:18.708Z,64.10
2022-12-18T01:13:46.798Z,64.00
2022-12-18T01:16:15.553Z,64.00
2022-12-18T01:18:43.151Z,64.00
2022-12-18T01:21:12.574Z,63.70
2022-12-18T01:23:39.742Z,63.90
2022-12-18T01:26:12.459Z,63.70
2022-12-18T01:28:40.663Z,63.70
2022-12-18T01:31:26.177Z,64.00
2022-12-18T01:33:54.195Z,64.10
2022-12-18T01:36:27.076Z,64.30
2022-12-18T01:38:54.692Z,64.90
2022-12-18T01:41:25.100Z,64.50
2022-12-18T01:43:53.665Z,64.40
2022-12-18T01:46:23.428Z,64.40
2022-12-18T01:49:01.232Z,64.20
2022-12-18T01:51:31.517Z,64.10
2022-12-18T01:54:00.311Z,64.30
2022-12-18T01:56:27.451Z,64.00
2022-12-18T01:58:54.400Z,64.20
2022-12-18T02:01:24.178Z,64.10
2022-12-18T02:03:51.508Z,64.10
2022-12-18T02:06:22.408Z,64.20
2022-12-18T02:08:49.190Z,64.30
2022-12-18T02:11:28.390Z,64.30
2022-12-18T02:14:23.861Z,64.20
2022-12-18T02:17:12.565Z,64.20
2022-12-18T02:19:57.541Z,64.20
2022-12-18T02:22:43.073Z,64.50
2022-12-18T02:25:21.900Z,64.40
2022-12-18T02:27:52.128Z,64.50
2022-12-18T02:30:20.155Z,64.60
2022-12-18T02:32:51.776Z,64.50
2022-12-18T02:35:23.044Z,64.50
2022-12-18T02:37:50.538Z,64.50
2022-12-18T02:40:19.094Z,64.50
2022-12-18T02:42:45.880Z,64.80
2022-12-18T02:45:13.527Z,64.80
2022-12-18T02:47:42.996Z,64.90
2022-12-18T02:50:18.686Z,64.80
2022-12-18T02:52:46.588Z,64.90
2022-12-18T02:55:40.659Z,64.90
2022-12-18T02:58:26.858Z,65.00
2022-12-18T03:01:25.436Z,64.80
2022-12-18T03:03:58.619Z,64.90
2022-12-18T03:06:31.113Z,64.80
2022-12-18T03:09:03.390Z,64.60
2022-12-18T03:11:53.148Z,64.60
2022-12-18T03:14:23.967Z,64.50
2022-12-18T03:16:55.587Z,64.40
2022-12-18T03:19:25.908Z,64.50
2022-12-18T03:21:56.105Z,64.20
2022-12-18T03:24:25.497Z,63.90
2022-12-18T03:26:55.819Z,64.20
2022-12-18T03:29:43.485Z,64.30
2022-12-18T03:32:18.475Z,64.10
2022-12-18T03:34:49.136Z,63.60
2022-12-18T03:37:16.264Z,63.80
2022-12-18T03:39:43.125Z,63.60
2022-12-18T03:42:30.829Z,62.80
2022-12-18T03:45:04.029Z,62.80
2022-12-18T03:47:50.636Z,63.20
2022-12-18T03:50:28.810Z,63.10
2022-12-18T03:53:00.411Z,63.30
2022-12-18T03:55:32.128Z,62.80
2022-12-18T03:57:59.705Z,62.40
2022-12-18T04:00:26.804Z,62.80
2022-12-18T04:02:56.854Z,62.80
2022-12-18T04:05:26.681Z,62.50
2022-12-18T04:07:54.980Z,62.60
2022-12-18T04:10:21.907Z,62.70
2022-12-18T04:12:49.353Z,62.60
2022-12-18T04:15:16.300Z,62.90
2022-12-18T04:17:49.719Z,63.00
2022-12-18T04:20:16.776Z,62.70
2022-12-18T04:22:43.784Z,62.70
2022-12-18T04:25:13.952Z,62.60
2022-12-18T04:27:40.804Z,62.70
2022-12-18T04:30:09.211Z,62.40
2022-12-18T04:32:36.116Z,62.70
2022-12-18T04:35:05.219Z,62.60
2022-12-18T04:37:32.131Z,62.80
2022-12-18T04:39:58.940Z,62.90
2022-12-18T04:42:25.716Z,63.00
2022-12-18T04:44:52.554Z,62.80
2022-12-18T04:47:19.411Z,62.90
2022-12-18T04:49:46.371Z,62.80
2022-12-18T04:52:13.239Z,63.00
2022-12-18T04:54:40.105Z,62.50
2022-12-18T04:57:06.961Z,62.70
2022-12-18T04:59:33.749Z,62.80
2022-12-18T05:02:00.634Z,62.80
2022-12-18T05:04:27.563Z,62.50
2022-12-18T05:06:54.377Z,63.10
2022-12-18T05:09:21.212Z,62.50
2022-12-18T05:11:48.083Z,62.80
2022-12-18T05:14:14.963Z,62.80
2022-12-18T05:16:41.802Z,62.70
2022-12-18T05:19:08.644Z,62.80
2022-12-18T05:21:35.484Z,63.00
2022-12-18T05:24:02.497Z,63.10
2022-12-18T05:26:29.330Z,63.10
2022-12-18T05:28:57.489Z,62.90
2022-12-18T05:31:24.485Z,62.80
2022-12-18T05:33:51.323Z,63.00
2022-12-18T05:36:18.312Z,62.70
2022-12-18T05:38:45.162Z,62.90
2022-12-18T05:41:12.246Z,62.40
2022-12-18T05:43:40.768Z,62.50
2022-12-18T05:46:11.216Z,62.50
2022-12-18T05:48:38.040Z,62.40
2022-12-18T05:51:16.220Z,62.00
2022-12-18T05:53:43.595Z,62.00
2022-12-18T05:56:13.475Z,61.60
2022-12-18T05:58:40.435Z,61.80
2022-12-18T06:01:16.936Z,61.70
2022-12-18T06:03:44.337Z,61.80
2022-12-18T06:06:26.093Z,62.20
2022-12-18T06:08:53.834Z,62.00
2022-12-18T06:11:23.856Z,62.10
2022-12-18T06:13:57.901Z,62.10
2022-12-18T06:16:25.733Z,62.50
2022-12-18T06:18:52.568Z,62.00
2022-12-18T06:21:19.656Z,62.00
2022-12-18T06:23:46.522Z,62.10
2022-12-18T06:26:14.553Z,61.60
2022-12-18T06:28:41.755Z,61.90
2022-12-18T06:31:09.913Z,61.50
2022-12-18T06:33:37.355Z,61.50
2022-12-18T06:36:10.450Z,61.50
2022-12-18T06:38:39.724Z,61.30
2022-12-18T06:41:12.501Z,61.40
2022-12-18T06:43:40.088Z,61.40
2022-12-18T06:46:08.062Z,61.70
2022-12-18T06:48:35.023Z,61.50
2022-12-18T06:51:02.464Z,61.20
2022-12-18T06:53:29.748Z,61.40
2022-12-18T06:56:09.429Z,61.50
2022-12-18T06:58:37.032Z,61.30
2022-12-18T07:01:06.244Z,61.40
2022-12-18T07:03:33.288Z,61.20
2022-12-18T07:06:00.377Z,61.60
2022-12-18T07:08:27.544Z,61.00
2022-12-18T07:10:56.409Z,61.10
2022-12-18T07:13:23.800Z,61.30
2022-12-18T07:15:50.912Z,61.50
2022-12-18T07:18:17.757Z,61.10
2022-12-18T07:20:45.205Z,61.00
2022-12-18T07:23:12.874Z,61.10
2022-12-18T07:25:40.527Z,61.20
2022-12-18T07:28:08.219Z,60.90
2022-12-18T07:30:39.382Z,61.20
2022-12-18T07:33:06.177Z,60.90
2022-12-18T07:35:35.027Z,60.60
2022-12-18T07:38:04.853Z,61.10
2022-12-18T07:40:31.684Z,61.10
2022-12-18T07:42:58.649Z,61.20
2022-12-18T07:45:25.546Z,60.50
2022-12-18T07:47:52.433Z,60.30
2022-12-18T07:50:19.292Z,60.40
2022-12-18T07:52:46.168Z,61.00
2022-12-18T07:55:12.988Z,61.30
2022-12-18T07:57:50.708Z,61.80
2022-12-18T08:00:18.496Z,61.50
2022-12-18T08:02:45.367Z,61.20
2022-12-18T08:05:12.289Z,61.40
2022-12-18T08:07:39.201Z,60.70
2022-12-18T08:10:07.362Z,59.40
2022-12-18T08:12:34.221Z,59.70
2022-12-18T08:15:01.261Z,59.60
2022-12-18T08:17:28.079Z,59.80
2022-12-18T08:19:54.887Z,59.10
2022-12-18T08:22:21.744Z,59.00
2022-12-18T08:24:48.695Z,59.10
2022-12-18T08:27:30.957Z,58.50
2022-12-18T08:29:58.671Z,58.10
2022-12-18T08:32:27.141Z,57.50
2022-12-18T08:34:53.964Z,58.00
2022-12-18T08:37:20.869Z,56.40
2022-12-18T08:39:47.736Z,55.90
2022-12-18T08:42:33.383Z,56.00
2022-12-18T08:45:00.265Z,55.40
2022-12-18T08:47:27.147Z,55.20
2022-12-18T08:49:54.078Z,54.80
2022-12-18T08:52:20.976Z,55.00
2022-12-18T08:54:47.818Z,54.40
2022-12-18T08:57:14.618Z,54.50
2022-12-18T08:59:41.432Z,54.50
2022-12-18T09:02:11.747Z,54.50
2022-12-18T09:04:38.926Z,54.80
2022-12-18T09:07:05.817Z,55.30
2022-12-18T09:09:32.683Z,55.30
2022-12-18T09:11:59.627Z,55.10
2022-12-18T09:14:26.502Z,55.30
2022-12-18T09:16:53.374Z,55.20
2022-12-18T09:19:20.222Z,55.70
2022-12-18T09:21:48.452Z,55.20
2022-12-18T09:24:16.459Z,55.40
2022-12-18T09:26:45.236Z,56.00
2022-12-18T09:29:15.575Z,55.70
2022-12-18T09:31:43.400Z,55.90
2022-12-18T09:34:10.272Z,55.90
2022-12-18T09:36:37.163Z,55.90
2022-12-18T09:39:08.126Z,56.00
2022-12-18T09:41:48.372Z,55.90
2022-12-18T09:44:24.442Z,56.00
2022-12-18T09:47:11.593Z,55.90
2022-12-18T09:49:46.188Z,55.90
2022-12-18T09:52:22.598Z,56.00
2022-12-18T09:55:11.919Z,55.80
2022-12-18T09:57:45.992Z,55.60
2022-12-18T10:00:23.922Z,55.90
2022-12-18T10:02:54.351Z,55.40
2022-12-18T10:05:46.777Z,55.90
2022-12-18T10:08:33.782Z,55.80
2022-12-18T10:11:27.985Z,55.40
2022-12-18T10:14:00.826Z,55.60
2022-12-18T10:16:47.463Z,55.70
2022-12-18T10:19:33.097Z,55.70
2022-12-18T10:22:18.729Z,55.80
2022-12-18T10:25:00.444Z,56.40
2022-12-18T10:27:28.322Z,56.40
2022-12-18T10:29:55.629Z,56.90
2022-12-18T10:32:28.539Z,56.40
2022-12-18T10:35:00.407Z,57.00
2022-12-18T10:37:30.052Z,56.80
2022-12-18T10:40:21.559Z,56.70
2022-12-18T10:43:12.412Z,56.40
2022-12-18T10:45:39.482Z,55.70
2022-12-18T10:48:19.207Z,56.30
2022-12-18T10:53:38.357Z,56.00
2022-12-18T10:56:07.302Z,56.30
2022-12-18T10:58:39.766Z,56.70
2022-12-18T11:01:18.599Z,56.60
2022-12-18T11:03:51.468Z,56.60
2022-12-18T11:06:22.838Z,56.50
2022-12-18T11:09:19.027Z,56.00
2022-12-18T11:12:03.498Z,56.00
2022-12-18T11:14:39.903Z,56.10
2022-12-18T11:17:25.750Z,56.30
2022-12-18T11:20:01.323Z,56.00
2022-12-18T11:22:31.389Z,55.40
2022-12-18T11:28:00.423Z,55.90
2022-12-18T11:30:27.342Z,56.00
2022-12-18T11:33:05.000Z,55.90
2022-12-18T11:35:50.729Z,56.40
2022-12-18T11:38:29.960Z,55.10
2022-12-18T11:41:44.669Z,54.80
2022-12-18T11:44:15.904Z,55.10
2022-12-18T11:47:10.560Z,54.70
2022-12-18T11:49:37.754Z,54.70
2022-12-18T11:52:16.688Z,54.80
2022-12-18T11:54:43.603Z,54.70
2022-12-18T11:57:29.154Z,54.70
2022-12-18T12:00:25.942Z,55.40
2022-12-18T12:02:58.819Z,56.20
2022-12-18T12:05:59.421Z,55.90
2022-12-18T12:09:01.822Z,55.30
2022-12-18T12:11:58.868Z,54.40
2022-12-18T12:14:43.518Z,52.20
2022-12-18T12:17:22.484Z,50.60
2022-12-18T12:20:00.222Z,48.00
2022-12-18T12:22:34.992Z,46.70
2022-12-18T12:25:34.340Z,44.60
2022-12-18T12:28:45.323Z,43.90
2022-12-18T12:31:36.991Z,44.00
2022-12-18T12:34:27.658Z,42.70
2022-12-18T12:37:19.570Z,42.70
2022-12-18T12:39:48.868Z,42.70
2022-12-18T12:42:46.760Z,42.40
2022-12-18T12:45:21.408Z,42.80
2022-12-18T12:47:50.681Z,42.70
2022-12-18T12:50:21.173Z,43.40
2022-12-18T12:52:54.601Z,43.80
2022-12-18T12:55:24.959Z,44.90
2022-12-18T12:58:11.067Z,45.90
2022-12-18T13:00:52.278Z,46.00
2022-12-18T13:04:04.522Z,44.90
2022-12-18T13:06:44.718Z,44.80
2022-12-18T13:09:12.169Z,43.80
2022-12-18T13:12:07.179Z,44.00
2022-12-18T13:14:40.556Z,43.60
2022-12-18T13:17:28.699Z,43.20
2022-12-18T13:20:13.722Z,43.80
2022-12-18T13:22:46.977Z,43.80
2022-12-18T13:25:42.960Z,44.30
2022-12-18T13:28:15.512Z,45.10
2022-12-18T13:30:57.810Z,45.20
2022-12-18T13:33:51.036Z,46.00
2022-12-18T13:36:32.856Z,46.10
2022-12-18T13:39:28.618Z,46.10
2022-12-18T13:42:05.860Z,47.00
2022-12-18T13:44:41.844Z,47.20
2022-12-18T13:47:35.615Z,47.10
2022-12-18T13:50:11.737Z,47.80
2022-12-18T13:52:40.914Z,47.20
2022-12-18T13:55:18.974Z,47.70
2022-12-18T13:57:46.298Z,48.10
2022-12-18T14:00:23.425Z,48.50
2022-12-18T14:02:51.735Z,48.60
2022-12-18T14:05:36.592Z,49.60
2022-12-18T14:08:14.984Z,49.10
2022-12-18T14:10:48.907Z,49.10
2022-12-18T14:13:29.211Z,49.60
2022-12-18T14:15:57.761Z,49.80
2022-12-18T14:18:31.125Z,49.70
2022-12-18T14:21:02.752Z,49.90
2022-12-18T14:23:37.567Z,49.80
2022-12-18T14:26:24.242Z,50.20
2022-12-18T14:28:51.132Z,50.10
2022-12-18T14:31:23.244Z,50.20
2022-12-18T14:33:50.741Z,50.40
2022-12-18T14:36:20.015Z,50.30
2022-12-18T14:38:51.610Z,51.20
2022-12-18T14:41:20.010Z,50.50
2022-12-18T14:43:50.004Z,50.80
2022-12-18T14:46:30.959Z,50.80
2022-12-18T14:48:58.634Z,50.80
2022-12-18T14:51:28.022Z,50.80
2022-12-18T14:53:58.782Z,51.30
2022-12-18T14:56:38.580Z,51.00
2022-12-18T14:59:18.052Z,51.20
2022-12-18T15:01:57.538Z,51.70
2022-12-18T15:04:44.864Z,52.00
2022-12-18T15:07:11.764Z,51.70
2022-12-18T15:09:40.725Z,51.90
2022-12-18T15:12:26.430Z,52.00
2022-12-18T15:14:53.220Z,51.80
2022-12-18T15:17:25.676Z,51.90
2022-12-18T15:20:01.164Z,52.20
2022-12-18T15:22:37.992Z,51.30
2022-12-18T15:25:32.330Z,52.20
2022-12-18T15:27:59.294Z,52.30
2022-12-18T15:30:26.854Z,51.90
2022-12-18T15:33:14.075Z,52.20
2022-12-18T15:35:46.624Z,52.20
2022-12-18T15:38:13.940Z,52.10
2022-12-18T15:40:40.756Z,52.10
2022-12-18T15:43:28.915Z,52.30
2022-12-18T15:45:55.722Z,52.90
2022-12-18T15:48:23.845Z,52.60
2022-12-18T15:50:57.811Z,52.70
2022-12-18T15:53:25.318Z,52.80
2022-12-18T15:56:10.593Z,53.00
2022-12-18T15:58:37.427Z,53.10
2022-12-18T16:01:04.361Z,52.70
2022-12-18T16:03:31.489Z,53.10
2022-12-18T16:06:01.243Z,53.00
2022-12-18T16:08:30.853Z,53.00
2022-12-18T16:10:58.937Z,53.10
2022-12-18T16:13:25.842Z,53.10
2022-12-18T16:15:52.870Z,53.70
2022-12-18T16:18:20.329Z,53.40
2022-12-18T16:20:47.271Z,53.60
2022-12-18T16:23:14.117Z,53.90
2022-12-18T16:25:41.002Z,53.60
2022-12-18T16:28:07.810Z,53.90
2022-12-18T16:30:38.315Z,54.00
2022-12-18T16:33:05.772Z,54.10
2022-12-18T16:35:34.922Z,54.60
2022-12-18T16:38:01.784Z,54.40
2022-12-18T16:40:28.710Z,54.60
2022-12-18T16:42:55.561Z,54.60
2022-12-18T16:45:22.372Z,54.30
2022-12-18T16:47:49.239Z,54.70
2022-12-18T16:50:16.292Z,54.70
2022-12-18T16:52:44.011Z,54.90
2022-12-18T16:55:11.046Z,54.90
2022-12-18T16:57:37.961Z,55.90
2022-12-18T17:00:06.281Z,55.20
2022-12-18T17:02:33.773Z,55.00
2022-12-18T17:05:01.245Z,55.20
2022-12-18T17:07:28.888Z,55.20
2022-12-18T17:09:56.055Z,55.00
2022-12-18T17:12:23.316Z,54.80
2022-12-18T17:14:50.546Z,54.80
2022-12-18T17:17:22.566Z,55.00
2022-12-18T17:19:51.374Z,55.30
2022-12-18T17:22:18.215Z,55.30
2022-12-18T17:24:46.146Z,55.40
2022-12-18T17:27:12.991Z,55.00
2022-12-18T17:29:46.539Z,54.80
2022-12-18T17:32:14.528Z,55.20
2022-12-18T17:34:41.467Z,55.10
2022-12-18T17:37:08.904Z,55.20
2022-12-18T17:39:35.867Z,55.60
2022-12-18T17:42:02.846Z,55.90
2022-12-18T17:44:29.892Z,55.80
2022-12-18T17:46:56.897Z,55.60
2022-12-18T17:49:23.880Z,55.70
2022-12-18T17:51:51.538Z,55.60
2022-12-18T17:54:18.476Z,55.60
2022-12-18T17:56:45.434Z,55.60
2022-12-18T17:59:12.571Z,55.40
2022-12-18T18:01:44.600Z,55.90
2022-12-18T18:04:12.544Z,56.20
2022-12-18T18:06:39.663Z,56.60
2022-12-18T18:09:09.969Z,56.80
2022-12-18T18:12:02.861Z,57.00
2022-12-18T18:14:30.422Z,56.90
2022-12-18T18:16:59.194Z,56.90
2022-12-18T18:19:32.955Z,56.90
2022-12-18T18:21:59.834Z,56.50
2022-12-18T18:24:27.166Z,56.80
2022-12-18T18:26:54.080Z,56.80
2022-12-18T18:29:24.008Z,56.60
2022-12-18T18:31:53.874Z,56.60
2022-12-18T18:34:23.693Z,56.80
2022-12-18T18:36:51.245Z,57.10
2022-12-18T18:39:18.239Z,57.20
2022-12-18T18:41:47.716Z,57.00
2022-12-18T18:44:15.071Z,57.10
2022-12-18T18:46:41.913Z,57.20
2022-12-18T18:49:09.570Z,57.30
2022-12-18T18:51:36.364Z,57.50
2022-12-18T18:54:03.343Z,57.60
2022-12-18T18:59:18.501Z,57.50
2022-12-18T19:01:45.701Z,57.80
2022-12-18T19:04:12.918Z,57.90
2022-12-18T19:06:40.148Z,57.90
2022-12-18T19:09:07.704Z,58.20
2022-12-18T19:11:53.158Z,57.90
2022-12-18T19:14:20.400Z,58.00
2022-12-18T19:16:47.332Z,58.30
2022-12-18T19:19:14.906Z,58.30
2022-12-18T19:21:41.933Z,58.20
2022-12-18T19:24:09.891Z,58.40
2022-12-18T19:26:37.836Z,58.40
2022-12-18T19:29:07.672Z,58.20
2022-12-18T19:31:36.728Z,58.40
2022-12-18T19:34:06.865Z,58.30
2022-12-18T19:36:35.729Z,58.40
2022-12-18T19:39:09.081Z,58.60
2022-12-18T19:41:35.868Z,58.80
2022-12-18T19:44:07.570Z,59.00
2022-12-18T19:46:36.118Z,59.10
2022-12-18T19:49:06.417Z,59.60
2022-12-18T19:51:33.326Z,59.40
2022-12-18T19:54:02.106Z,59.50
2022-12-18T19:56:32.403Z,59.60
2022-12-18T19:58:59.621Z,59.50
2022-12-18T20:01:28.174Z,59.70
2022-12-18T20:03:56.042Z,59.80
2022-12-18T20:06:33.859Z,59.80
2022-12-18T20:09:04.149Z,59.90
2022-12-18T20:11:32.121Z,59.90
2022-12-18T20:14:02.576Z,59.90
2022-12-18T20:16:30.278Z,60.00
2022-12-18T20:18:58.880Z,60.20
2022-12-18T20:21:26.785Z,60.30
2022-12-18T20:23:55.744Z,60.20
2022-12-18T20:26:24.006Z,60.40
2022-12-18T20:28:50.935Z,60.40
2022-12-18T20:31:18.899Z,60.40
2022-12-18T20:33:46.321Z,60.70
2022-12-18T20:36:19.153Z,60.70
2022-12-18T20:38:50.052Z,60.50
2022-12-18T20:41:19.729Z,60.50
2022-12-18T20:43:46.788Z,60.60
2022-12-18T20:46:15.383Z,60.70
2022-12-18T20:48:43.416Z,60.90
2022-12-18T20:51:14.080Z,61.00
2022-12-18T20:53:41.532Z,61.00
2022-12-18T20:56:21.044Z,61.20
2022-12-18T20:58:49.423Z,61.20
2022-12-18T21:01:18.816Z,61.40
2022-12-18T21:03:47.135Z,61.50
2022-12-18T21:06:15.592Z,61.50
2022-12-18T21:08:42.902Z,61.60
2022-12-18T21:11:32.428Z,61.50
2022-12-18T21:14:00.019Z,61.60
2022-12-18T21:16:27.145Z,62.10
2022-12-18T21:18:54.515Z,61.50
2022-12-18T21:21:26.516Z,61.60
2022-12-18T21:23:54.106Z,61.70
2022-12-18T21:26:24.184Z,61.60
2022-12-18T21:28:59.857Z,61.50
2022-12-18T21:31:32.096Z,61.50
2022-12-18T21:34:01.995Z,61.60
2022-12-18T21:36:30.111Z,61.60
2022-12-18T21:38:58.419Z,61.50
2022-12-18T21:41:44.912Z,61.50
2022-12-18T21:44:16.995Z,62.20
2022-12-18T21:46:50.155Z,61.80
2022-12-18T21:49:22.394Z,61.90
2022-12-18T21:51:51.194Z,62.10
2022-12-18T21:54:19.127Z,62.20
2022-12-18T21:56:52.057Z,62.20
2022-12-18T21:59:24.917Z,62.10
2022-12-18T22:01:53.630Z,62.10
2022-12-18T22:04:21.403Z,61.90
2022-12-18T22:06:48.680Z,62.00
2022-12-18T22:09:18.224Z,61.80
2022-12-18T22:11:45.226Z,61.70
2022-12-18T22:14:12.485Z,61.70
2022-12-18T22:16:39.712Z,61.70
2022-12-18T22:19:07.226Z,61.70
2022-12-18T22:21:36.961Z,62.00
2022-12-18T22:24:06.596Z,61.90
2022-12-18T22:26:39.883Z,61.50
2022-12-18T22:29:26.653Z,61.50
2022-12-18T22:31:53.493Z,61.50
2022-12-18T22:34:23.015Z,61.70
2022-12-18T22:36:50.840Z,61.70
2022-12-18T22:39:20.504Z,61.90
2022-12-18T22:41:48.730Z,61.60
2022-12-18T22:44:17.535Z,61.50
2022-12-18T22:47:03.527Z,62.10
2022-12-18T22:49:35.389Z,61.60
2022-12-18T22:52:03.884Z,61.60
2022-12-18T22:54:30.879Z,61.50
2022-12-18T22:56:57.918Z,61.30
2022-12-18T22:59:25.073Z,61.40
2022-12-18T23:01:57.082Z,62.20
2022-12-18T23:04:36.072Z,61.70
2022-12-18T23:07:07.331Z,61.90
2022-12-18T23:09:34.729Z,61.90
2022-12-18T23:12:02.279Z,62.00
2022-12-18T23:14:33.271Z,62.10
2022-12-18T23:17:00.085Z,62.10
2022-12-18T23:19:28.214Z,62.20
2022-12-18T23:22:00.012Z,62.20
2022-12-18T23:24:30.852Z,62.30
2022-12-18T23:26:59.542Z,62.40
2022-12-18T23:29:26.402Z,62.40
2022-12-18T23:31:56.241Z,62.30
2022-12-18T23:34:23.109Z,62.30
2022-12-18T23:36:58.688Z,62.50
2022-12-18T23:39:29.850Z,62.50
2022-12-18T23:41:58.725Z,62.40
2022-12-18T23:44:28.458Z,62.40
2022-12-18T23:46:57.709Z,62.40
2022-12-18T23:49:25.065Z,62.20
2022-12-18T23:51:55.958Z,62.10
2022-12-18T23:54:31.708Z,62.10
2022-12-18T23:57:00.417Z,62.00
2022-12-18T23:59:34.540Z,62.10
